Time;durP1;ratioP1;P1;durP2;ratioP2;P2;SDS_P1;SDS_P2;PMS_P1;PMS_P2;Temp;Humidity;BMP_temperature;BMP_pressure;BME280_temperature;BME280_humidity;BME280_pressure;Samples;Min_cycle;Max_cycle;Signal;HPM_P1;HPM_P2
2021/05/17 00:02:12;;;;;;;3.33;1.10;;;;;;;10.98;72.38;97667.19;3588881;40;20152;-62
2021/05/17 00:04:41;;;;;;;1.17;1.08;;;;;;;10.97;72.66;97670.03;3588548;40;20048;-63
2021/05/17 00:07:11;;;;;;;3.08;1.50;;;;;;;11.01;72.66;97660.63;3588122;40;20048;-63
2021/05/17 00:09:38;;;;;;;1.70;1.33;;;;;;;10.99;72.55;97665.34;3578792;40;20036;-63
2021/05/17 00:12:09;;;;;;;2.40;1.10;;;;;;;10.90;72.82;97668.28;3588301;40;20095;-64
2021/05/17 00:14:37;;;;;;;1.95;1.17;;;;;;;10.93;72.89;97664.38;3588058;40;20044;-63
2021/05/17 00:17:05;;;;;;;2.65;1.20;;;;;;;10.93;73.19;97669.66;3588991;40;20129;-63
2021/05/17 00:19:33;;;;;;;3.85;1.15;;;;;;;10.98;73.21;97661.06;3589879;40;20056;-63
2021/05/17 00:22:00;;;;;;;3.60;1.60;;;;;;;10.95;73.62;97662.34;3589751;40;20060;-63
2021/05/17 00:24:28;;;;;;;2.72;1.35;;;;;;;10.94;73.59;97665.19;3580174;40;20044;-63
2021/05/17 00:26:55;;;;;;;1.73;1.50;;;;;;;11.01;73.62;97660.63;3589203;40;20052;-63
2021/05/17 00:29:24;;;;;;;2.85;1.67;;;;;;;11.05;73.40;97659.94;3590104;40;20339;-63
2021/05/17 00:31:52;;;;;;;3.88;1.83;;;;;;;10.99;73.47;97662.69;3590942;40;20044;-63
2021/05/17 00:34:19;;;;;;;4.68;2.28;;;;;;;10.99;73.82;97663.50;3590411;40;20095;-63
2021/05/17 00:36:47;;;;;;;2.95;1.67;;;;;;;11.04;73.67;97657.53;3589771;40;20048;-63
2021/05/17 00:39:15;;;;;;;3.58;1.60;;;;;;;11.05;73.96;97667.06;3589583;40;20055;-63
2021/05/17 00:41:43;;;;;;;4.57;1.60;;;;;;;11.00;73.80;97656.38;3590856;40;20344;-63
2021/05/17 00:44:10;;;;;;;4.10;1.88;;;;;;;10.99;73.75;97666.16;3580753;40;20051;-63
2021/05/17 00:46:40;;;;;;;2.58;1.85;;;;;;;11.04;74.12;97670.75;3580643;40;20059;-63
2021/05/17 00:49:08;;;;;;;5.75;2.00;;;;;;;11.04;73.79;97663.63;3579925;40;20048;-63
2021/05/17 00:51:37;;;;;;;5.90;1.98;;;;;;;11.10;73.78;97656.63;3580895;40;20060;-63
2021/05/17 00:54:06;;;;;;;4.00;1.83;;;;;;;11.01;73.81;97664.06;3590305;40;20045;-63
2021/05/17 00:56:34;;;;;;;4.43;1.50;;;;;;;11.00;73.81;97666.94;3580016;40;20440;-64
2021/05/17 00:59:01;;;;;;;5.50;1.73;;;;;;;10.97;73.83;97657.63;3589195;40;20049;-62
2021/05/17 01:01:29;;;;;;;3.83;1.45;;;;;;;10.95;73.72;97661.53;3589647;40;20052;-63
2021/05/17 01:03:57;;;;;;;3.35;1.70;;;;;;;10.97;73.62;97660.25;3589517;40;20048;-63
2021/05/17 01:06:34;;;;;;;9.60;2.08;;;;;;;10.97;73.59;97660.25;3580207;40;20060;-63
2021/05/17 01:09:05;;;;;;;5.32;2.33;;;;;;;10.92;73.94;97654.84;3589281;40;20049;-63
2021/05/17 01:11:36;;;;;;;2.63;1.40;;;;;;;10.95;73.92;97666.81;3580345;40;20160;-64
2021/05/17 01:14:06;;;;;;;2.25;1.13;;;;;;;10.94;73.59;97667.81;3589642;40;20058;-63
2021/05/17 01:16:36;;;;;;;3.63;1.13;;;;;;;10.93;73.51;97664.38;3580361;40;20053;-63
2021/05/17 01:19:12;;;;;;;3.42;1.38;;;;;;;10.90;73.75;97659.56;3588995;40;20032;-63
2021/05/17 01:21:51;;;;;;;5.47;1.20;;;;;;;10.88;73.48;97665.03;3589689;40;20048;-63
2021/05/17 01:24:21;;;;;;;3.13;1.30;;;;;;;10.78;73.64;97664.78;3580187;40;20045;-63
2021/05/17 01:26:49;;;;;;;2.17;1.15;;;;;;;10.78;73.78;97663.97;3589563;40;20051;-63
2021/05/17 01:29:18;;;;;;;3.30;1.50;;;;;;;10.74;73.74;97666.25;3579424;40;20028;-63
2021/05/17 01:31:47;;;;;;;2.05;1.17;;;;;;;10.75;73.58;97662.56;3589280;40;20089;-63
2021/05/17 01:34:15;;;;;;;4.97;1.25;;;;;;;10.73;73.58;97666.44;3580243;40;20049;-63
2021/05/17 01:36:44;;;;;;;2.65;1.27;;;;;;;10.74;73.73;97663.59;3589585;40;20045;-63
2021/05/17 01:39:15;;;;;;;2.60;1.23;;;;;;;10.69;73.93;97665.28;3579654;40;20117;-63
2021/05/17 01:41:47;;;;;;;1.52;1.10;;;;;;;10.71;74.05;97661.41;3580214;40;20052;-63
2021/05/17 01:44:18;;;;;;;1.08;0.90;;;;;;;10.75;73.89;97664.41;3589475;40;20039;-63
2021/05/17 01:46:48;;;;;;;2.88;0.73;;;;;;;10.69;73.97;97667.91;3589469;40;20040;-64
2021/05/17 01:49:16;;;;;;;4.07;1.05;;;;;;;10.67;74.03;97660.22;3590876;40;20475;-62
2021/05/17 01:51:48;;;;;;;2.75;0.95;;;;;;;10.68;73.84;97663.66;3591302;40;20375;-63
2021/05/17 01:54:18;;;;;;;1.83;0.90;;;;;;;10.64;74.04;97672.03;3591752;40;20106;-63
2021/05/17 01:56:51;;;;;;;1.40;0.63;;;;;;;10.62;73.89;97665.38;3581095;40;20707;-63
2021/05/17 01:59:28;;;;;;;1.73;0.80;;;;;;;10.59;73.42;97660.50;3589996;40;20445;-63
2021/05/17 02:01:55;;;;;;;4.20;1.10;;;;;;;10.64;73.37;97668.59;3590146;40;20025;-63
2021/05/17 02:04:24;;;;;;;3.10;1.00;;;;;;;10.68;73.49;97664.47;3590765;40;20031;-63
2021/05/17 02:06:53;;;;;;;1.30;0.75;;;;;;;10.62;73.07;97668.00;3580549;40;20021;-63
2021/05/17 02:09:21;;;;;;;3.92;1.42;;;;;;;10.66;73.14;97671.81;3589943;40;20034;-63
2021/05/17 02:11:50;;;;;;;2.10;1.00;;;;;;;10.65;73.15;97673.66;3589510;40;20086;-63
2021/05/17 02:14:40;;;;;;;1.38;0.80;;;;;;;10.69;73.13;97670.56;3589354;40;20368;-63
2021/05/17 02:17:08;;;;;;;2.20;1.10;;;;;;;10.73;72.98;97677.03;3589138;40;20059;-63
2021/05/17 02:19:35;;;;;;;2.88;1.20;;;;;;;10.68;72.79;97682.97;3589333;40;20028;-64
2021/05/17 02:22:03;;;;;;;2.67;1.02;;;;;;;10.65;72.99;97675.47;3579623;40;20325;-63
2021/05/17 02:24:36;;;;;;;1.73;1.20;;;;;;;10.66;73.51;97679.75;3580395;40;20031;-63
2021/05/17 02:27:07;;;;;;;4.47;1.65;;;;;;;10.60;73.18;97681.44;3589018;40;20061;-63
2021/05/17 02:29:39;;;;;;;3.30;1.40;;;;;;;10.56;73.38;97679.44;3580156;40;20037;-63
2021/05/17 02:32:08;;;;;;;2.90;1.50;;;;;;;10.50;73.45;97675.84;3579644;40;20048;-63
2021/05/17 02:34:36;;;;;;;2.45;1.30;;;;;;;10.45;74.02;97672.22;3579906;40;20129;-63
2021/05/17 02:37:08;;;;;;;2.95;1.55;;;;;;;10.45;74.24;97680.16;3579778;40;20056;-63
2021/05/17 02:39:36;;;;;;;3.00;1.33;;;;;;;10.46;74.25;97679.97;3589080;40;20045;-63
2021/05/17 02:42:04;;;;;;;2.45;1.30;;;;;;;10.52;74.08;97681.72;3589433;40;20149;-64
2021/05/17 02:44:33;;;;;;;2.92;1.40;;;;;;;10.46;74.08;97677.31;3579752;40;20055;-63
2021/05/17 02:47:01;;;;;;;2.53;1.35;;;;;;;10.43;74.26;97687.50;3588823;40;20132;-63
2021/05/17 02:49:41;;;;;;;5.45;1.20;;;;;;;10.45;74.33;97683.63;3589165;40;20081;-64
2021/05/17 02:52:10;;;;;;;1.98;1.35;;;;;;;10.46;74.34;97681.81;3579870;40;20078;-62
2021/05/17 02:54:38;;;;;;;3.70;1.17;;;;;;;10.47;74.31;97681.56;3588938;40;20048;-62
2021/05/17 02:57:09;;;;;;;3.95;1.25;;;;;;;10.48;74.26;97682.38;3579146;40;20052;-63
2021/05/17 03:00:10;;;;;;;2.78;1.20;;;;;;;10.51;73.86;97688.03;3579580;40;20052;-63
2021/05/17 03:02:58;;;;;;;1.90;1.25;;;;;;;10.50;73.84;97694.34;3579476;40;20405;-63
2021/05/17 03:05:28;;;;;;;3.38;1.38;;;;;;;10.44;74.03;97691.75;3579272;40;20044;-63
2021/05/17 03:08:01;;;;;;;1.45;1.20;;;;;;;10.45;74.04;97696.84;3579070;40;20051;-63
2021/05/17 03:10:31;;;;;;;3.13;0.90;;;;;;;10.46;74.11;97698.47;3588898;40;20402;-62
2021/05/17 03:13:05;;;;;;;1.95;1.02;;;;;;;10.44;74.56;97702.34;3579243;40;20357;-63
2021/05/17 03:15:33;;;;;;;1.80;1.15;;;;;;;10.41;74.56;97701.75;3579594;40;20092;-64
2021/05/17 03:18:04;;;;;;;1.15;1.05;;;;;;;10.39;75.08;97703.00;3587331;40;20041;-63
2021/05/17 03:20:33;;;;;;;2.55;1.27;;;;;;;10.43;75.11;97709.47;3588924;40;20051;-61
2021/05/17 03:23:01;;;;;;;1.48;1.15;;;;;;;10.37;75.17;97711.16;3588689;40;20089;-62
2021/05/17 03:25:32;;;;;;;1.30;1.00;;;;;;;10.39;75.33;97708.28;3588784;40;20040;-62
2021/05/17 03:28:00;;;;;;;2.53;1.20;;;;;;;10.41;75.50;97711.53;3588573;40;20077;-62
2021/05/17 03:30:27;;;;;;;2.28;1.10;;;;;;;10.45;75.52;97715.34;3589099;40;20048;-62
2021/05/17 03:32:55;;;;;;;2.33;1.20;;;;;;;10.44;75.21;97711.06;3588727;40;20056;-62
2021/05/17 03:35:23;;;;;;;3.25;1.33;;;;;;;10.40;75.14;97710.69;3588853;40;20044;-62
2021/05/17 03:37:50;;;;;;;1.15;0.95;;;;;;;10.46;75.19;97721.44;3588450;40;20052;-62
2021/05/17 03:40:18;;;;;;;2.38;1.02;;;;;;;10.47;74.92;97709.84;3582157;40;20036;-61
2021/05/17 03:42:46;;;;;;;2.90;1.90;;;;;;;10.46;74.75;97708.22;3589985;40;20044;-62
2021/05/17 03:45:15;;;;;;;2.67;1.00;;;;;;;10.41;74.93;97714.16;3589640;40;20045;-62
2021/05/17 03:47:42;;;;;;;3.10;1.23;;;;;;;10.46;74.76;97716.16;3579123;40;20561;-62
2021/05/17 03:50:12;;;;;;;1.75;1.15;;;;;;;10.51;74.79;97719.75;3588442;40;20052;-61
2021/05/17 03:52:40;;;;;;;4.30;1.30;;;;;;;10.46;74.52;97716.94;3590071;40;20126;-62
2021/05/17 03:55:08;;;;;;;2.42;1.10;;;;;;;10.45;74.85;97725.06;3590246;40;20374;-61
2021/05/17 03:57:36;;;;;;;3.10;1.50;;;;;;;10.43;74.42;97725.31;3589752;40;20099;-62
2021/05/17 04:00:07;;;;;;;2.53;1.35;;;;;;;10.45;74.59;97731.19;3590016;40;20052;-63
2021/05/17 04:02:41;;;;;;;3.92;1.30;;;;;;;10.45;74.62;97730.38;3590231;40;20047;-62
2021/05/17 04:05:23;;;;;;;2.95;1.10;;;;;;;10.53;74.43;97735.38;3590031;40;20060;-62
2021/05/17 04:13:19;;;;;;;3.88;1.13;;;;;;;10.45;74.12;97735.66;3590556;40;20043;-62
2021/05/17 04:15:48;;;;;;;5.97;1.35;;;;;;;10.46;74.42;97739.94;3590062;40;20314;-62
2021/05/17 04:18:17;;;;;;;1.25;1.02;;;;;;;10.44;74.29;97740.13;3589594;40;20055;-62
2021/05/17 04:20:45;;;;;;;3.17;1.20;;;;;;;10.49;74.56;97747.41;3590299;40;20153;-62
2021/05/17 04:23:13;;;;;;;4.15;1.42;;;;;;;10.51;74.21;97740.06;3589651;40;20126;-61
2021/05/17 04:25:40;;;;;;;3.38;1.30;;;;;;;10.48;74.32;97753.72;3589959;40;20056;-62
2021/05/17 04:28:08;;;;;;;3.67;1.13;;;;;;;10.54;74.33;97756.31;3589889;40;20055;-62
2021/05/17 04:30:35;;;;;;;3.67;1.23;;;;;;;10.51;74.24;97758.56;3591105;40;20063;-62
2021/05/17 04:33:02;;;;;;;3.13;1.10;;;;;;;10.47;74.52;97752.09;3591069;40;20626;-62
2021/05/17 04:35:30;;;;;;;5.75;1.52;;;;;;;10.52;74.62;97768.91;3589935;40;20040;-61
2021/05/17 04:37:58;;;;;;;4.88;1.92;;;;;;;10.53;74.49;97767.91;3589499;40;20045;-62
2021/05/17 04:40:26;;;;;;;4.75;1.55;;;;;;;10.59;74.70;97766.22;3589388;40;20051;-62
2021/05/17 04:42:53;;;;;;;3.83;1.50;;;;;;;10.65;74.52;97766.16;3589468;40;20056;-62
2021/05/17 04:45:23;;;;;;;4.15;1.48;;;;;;;10.63;74.90;97767.41;3589723;40;20386;-63
2021/05/17 04:47:51;;;;;;;3.08;1.80;;;;;;;10.60;74.95;97762.53;3589373;40;20055;-62
2021/05/17 04:50:18;;;;;;;5.45;1.60;;;;;;;10.64;74.86;97767.19;3589568;40;20059;-62
2021/05/17 04:52:45;;;;;;;2.90;1.88;;;;;;;10.58;75.34;97762.78;3589276;40;20059;-62
2021/05/17 04:55:14;;;;;;;5.22;1.77;;;;;;;10.48;75.12;97775.66;3580403;40;20053;-62
2021/05/17 04:57:41;;;;;;;4.38;1.80;;;;;;;10.55;75.48;97775.59;3580373;40;20052;-63
2021/05/17 05:00:10;;;;;;;2.95;1.60;;;;;;;10.60;75.59;97778.41;3580350;40;20048;-62
2021/05/17 05:02:38;;;;;;;6.00;1.75;;;;;;;10.64;74.94;97774.31;3589075;40;20111;-63
2021/05/17 05:05:07;;;;;;;5.68;2.28;;;;;;;10.76;74.71;97775.19;3589738;40;20056;-63
2021/05/17 05:07:34;;;;;;;5.18;2.15;;;;;;;10.82;74.89;97782.28;3589601;40;20314;-63
2021/05/17 05:10:02;;;;;;;3.17;2.00;;;;;;;10.94;74.74;97784.16;3589825;40;20037;-63
2021/05/17 05:12:30;;;;;;;4.88;2.15;;;;;;;11.13;73.71;97783.16;3589373;40;20044;-63
2021/05/17 05:14:57;;;;;;;4.97;2.03;;;;;;;11.11;73.43;97782.56;3589500;40;20055;-64
2021/05/17 05:17:24;;;;;;;4.88;2.80;;;;;;;11.22;73.43;97792.41;3589355;40;20059;-63
2021/05/17 05:19:52;;;;;;;5.88;1.90;;;;;;;11.26;73.12;97790.13;3589421;40;20325;-63
2021/05/17 05:22:19;;;;;;;6.97;2.35;;;;;;;11.20;73.68;97791.03;3580076;40;20063;-63
2021/05/17 05:24:47;;;;;;;3.70;1.73;;;;;;;11.15;73.81;97800.44;3589386;40;20048;-63
2021/05/17 05:27:18;;;;;;;4.32;1.60;;;;;;;11.06;73.65;97800.91;3589145;40;20041;-63
2021/05/17 05:30:09;;;;;;;6.80;1.67;;;;;;;11.02;73.51;97803.22;3589708;40;20394;-63
2021/05/17 05:32:38;;;;;;;4.03;1.38;;;;;;;10.94;73.38;97806.16;3589647;40;20051;-63
2021/05/17 05:35:07;;;;;;;5.40;1.80;;;;;;;10.85;73.36;97802.97;3580119;40;20079;-63
2021/05/17 05:37:34;;;;;;;3.80;1.45;;;;;;;10.91;73.65;97807.38;3589298;40;20540;-63
2021/05/17 05:40:03;;;;;;;4.57;1.50;;;;;;;10.92;73.44;97800.25;3589799;40;20433;-63
2021/05/17 05:42:30;;;;;;;5.40;2.85;;;;;;;10.98;73.42;97804.69;3590032;40;20394;-62
2021/05/17 05:44:59;;;;;;;4.57;1.30;;;;;;;11.00;73.43;97809.75;3591929;40;20055;-64
2021/05/17 05:47:26;;;;;;;10.48;1.90;;;;;;;11.12;73.21;97806.16;3592020;40;20357;-64
2021/05/17 05:49:53;;;;;;;2.90;1.27;;;;;;;11.23;72.91;97817.03;3591320;40;20048;-63
2021/05/17 05:52:21;;;;;;;3.50;1.70;;;;;;;11.27;72.82;97812.94;3589557;40;20055;-63
2021/05/17 05:54:49;;;;;;;6.82;1.60;;;;;;;11.32;72.48;97807.78;3589317;40;20040;-64
2021/05/17 05:57:17;;;;;;;4.15;1.30;;;;;;;11.35;72.36;97810.78;3579933;40;20138;-63
2021/05/17 05:59:45;;;;;;;3.38;1.75;;;;;;;11.33;72.18;97810.19;3589731;40;20343;-63
2021/05/17 06:02:13;;;;;;;1.70;1.00;;;;;;;11.37;71.85;97813.19;3589592;40;20051;-63
2021/05/17 06:04:41;;;;;;;4.68;1.40;;;;;;;11.43;71.91;97808.84;3589503;40;20052;-63
2021/05/17 06:07:08;;;;;;;5.53;1.67;;;;;;;11.52;71.65;97803.06;3579816;40;20055;-63
2021/05/17 06:09:35;;;;;;;6.70;2.00;;;;;;;11.60;71.85;97810.69;3580029;40;20428;-63
2021/05/17 06:12:03;;;;;;;4.43;1.77;;;;;;;11.64;71.39;97821.63;3589354;40;20053;-63
2021/05/17 06:14:32;;;;;;;6.30;1.67;;;;;;;11.67;71.85;97823.81;3589145;40;20048;-64
2021/05/17 06:17:00;;;;;;;5.57;1.73;;;;;;;11.72;71.56;97823.97;3589045;40;20329;-64
2021/05/17 06:19:29;;;;;;;6.18;1.67;;;;;;;11.78;71.46;97820.41;3590070;40;20056;-63
2021/05/17 06:21:57;;;;;;;2.90;1.52;;;;;;;11.72;71.64;97820.53;3590968;40;20059;-64
2021/05/17 06:24:25;;;;;;;5.88;1.60;;;;;;;11.68;71.59;97836.03;3590128;40;20048;-64
2021/05/17 06:26:53;;;;;;;2.20;1.70;;;;;;;11.66;71.95;97830.16;3589166;40;20045;-63
2021/05/17 06:29:20;;;;;;;5.22;1.77;;;;;;;11.75;71.69;97828.00;3589122;40;20294;-63
2021/05/17 06:31:49;;;;;;;2.80;1.23;;;;;;;11.80;71.23;97836.91;3580188;40;20045;-62
2021/05/17 06:34:16;;;;;;;3.50;1.42;;;;;;;11.63;71.13;97842.00;3589885;40;20048;-63
2021/05/17 06:36:44;;;;;;;6.07;1.38;;;;;;;11.45;71.32;97844.66;3589162;40;20040;-63
2021/05/17 06:39:13;;;;;;;3.60;1.40;;;;;;;11.33;71.66;97846.44;3579616;40;20413;-62
2021/05/17 06:41:40;;;;;;;5.45;1.83;;;;;;;11.31;71.76;97849.31;3589355;40;20084;-63
2021/05/17 06:44:08;;;;;;;5.07;1.92;;;;;;;11.48;72.13;97846.88;3589200;40;20351;-63
2021/05/17 06:46:37;;;;;;;5.45;1.35;;;;;;;11.54;71.69;97855.75;3580965;40;20055;-63
2021/05/17 06:49:06;;;;;;;4.97;1.30;;;;;;;11.46;71.26;97851.56;3590222;40;20045;-62
2021/05/17 06:51:34;;;;;;;4.80;1.75;;;;;;;11.39;71.51;97856.13;3589118;40;20142;-62
2021/05/17 06:54:03;;;;;;;3.28;1.40;;;;;;;11.34;71.24;97867.38;3589166;40;20406;-63
2021/05/17 06:56:39;;;;;;;2.15;1.15;;;;;;;11.40;71.37;97857.75;3589262;40;20063;-64
2021/05/17 06:59:12;;;;;;;2.72;1.38;;;;;;;11.46;71.10;97864.78;3588808;40;20063;-64
2021/05/17 07:01:39;;;;;;;2.07;1.10;;;;;;;11.67;70.79;97863.53;3589178;40;20055;-63
2021/05/17 07:04:09;;;;;;;2.55;0.80;;;;;;;11.82;70.31;97869.25;3588876;40;20048;-63
2021/05/17 07:06:40;;;;;;;2.75;0.65;;;;;;;11.94;69.46;97869.34;3579806;40;20024;-62
2021/05/17 07:11:57;;;;;;;1.60;1.00;;;;;;;12.08;69.52;97867.31;3589006;40;20073;-64
2021/05/17 07:14:25;;;;;;;2.40;0.90;;;;;;;12.23;69.14;97873.03;3589197;40;20404;-63
2021/05/17 07:16:53;;;;;;;6.22;1.52;;;;;;;12.42;69.33;97875.63;3588727;40;20045;-63
2021/05/17 07:19:23;;;;;;;2.50;1.10;;;;;;;12.48;68.51;97874.69;3589179;40;20056;-63
2021/05/17 07:24:37;;;;;;;2.05;1.00;;;;;;;12.46;68.11;97872.28;3589072;40;20052;-64
2021/05/17 07:27:05;;;;;;;19.45;6.88;;;;;;;12.33;67.70;97868.00;3579093;40;20049;-63
2021/05/17 07:29:35;;;;;;;5.85;1.70;;;;;;;12.15;67.82;97875.97;3588968;40;20130;-64
2021/05/17 07:32:05;;;;;;;1.77;0.90;;;;;;;12.08;67.92;97880.56;3579489;40;20044;-64
2021/05/17 07:34:35;;;;;;;1.73;0.80;;;;;;;12.11;67.65;97874.81;3588801;40;20126;-63
2021/05/17 07:37:04;;;;;;;0.93;0.70;;;;;;;12.22;67.62;97881.19;3588759;40;20133;-62
2021/05/17 07:39:32;;;;;;;2.45;1.02;;;;;;;12.18;67.83;97877.38;3589027;40;20072;-63
2021/05/17 07:42:01;;;;;;;1.35;0.80;;;;;;;12.09;67.68;97879.53;3588827;40;20374;-62
2021/05/17 07:44:30;;;;;;;1.88;0.85;;;;;;;12.12;67.99;97876.44;3588564;40;20340;-64
2021/05/17 07:46:58;;;;;;;3.47;1.15;;;;;;;12.23;68.01;97875.66;3588387;40;20045;-63
2021/05/17 07:49:35;;;;;;;1.73;0.98;;;;;;;12.52;67.33;97875.84;3588485;40;20061;-64
2021/05/17 07:52:04;;;;;;;1.95;1.00;;;;;;;12.73;66.73;97879.81;3588702;40;20052;-63
2021/05/17 07:54:31;;;;;;;2.97;0.80;;;;;;;12.80;66.23;97880.53;3588403;40;20044;-64
2021/05/17 07:56:58;;;;;;;6.22;2.78;;;;;;;12.88;66.62;97878.34;3588156;40;20048;-64
2021/05/17 07:59:29;;;;;;;4.30;2.22;;;;;;;13.02;66.63;97876.28;3588599;40;20052;-64
2021/05/17 08:01:57;;;;;;;2.15;1.48;;;;;;;13.22;65.89;97883.06;3588844;40;20138;-63
2021/05/17 08:04:24;;;;;;;3.72;1.00;;;;;;;13.46;64.97;97878.56;3588597;40;20052;-64
2021/05/17 08:06:52;;;;;;;1.65;0.90;;;;;;;13.64;64.77;97886.41;3588522;40;20048;-64
2021/05/17 08:09:20;;;;;;;2.10;1.00;;;;;;;13.66;64.62;97880.84;3588145;40;20118;-64
2021/05/17 08:11:49;;;;;;;2.33;1.10;;;;;;;13.59;63.67;97886.28;3588582;40;20060;-64
2021/05/17 08:14:17;;;;;;;3.00;1.30;;;;;;;13.31;64.21;97885.19;3588451;40;20058;-64
2021/05/17 08:16:46;;;;;;;1.88;1.40;;;;;;;13.09;64.04;97884.91;3588521;40;20064;-64
2021/05/17 08:19:14;;;;;;;4.50;1.77;;;;;;;13.23;64.29;97890.03;3588169;40;20098;-65
2021/05/17 08:21:41;;;;;;;6.68;1.77;;;;;;;13.34;63.89;97887.34;3588483;40;20056;-63
2021/05/17 08:24:09;;;;;;;2.45;1.35;;;;;;;13.46;63.33;97878.56;3588367;40;20406;-63
2021/05/17 08:26:37;;;;;;;1.63;1.10;;;;;;;13.59;63.68;97886.28;3588241;40;20335;-64
2021/05/17 08:29:05;;;;;;;2.38;1.00;;;;;;;13.55;63.56;97880.66;3588090;40;20047;-63
2021/05/17 08:31:33;;;;;;;4.80;1.30;;;;;;;13.59;62.91;97879.16;3629838;22;20175;-63
2021/05/17 08:34:01;;;;;;;3.90;1.45;;;;;;;13.58;62.70;97874.84;3598974;40;20344;-63
2021/05/17 08:36:28;;;;;;;2.97;1.30;;;;;;;13.65;62.78;97873.94;3596116;39;20320;-62
2021/05/17 08:38:55;;;;;;;2.80;1.20;;;;;;;13.70;62.68;97882.78;3597883;40;20290;-63
2021/05/17 08:41:23;;;;;;;3.20;1.20;;;;;;;13.90;62.15;97877.06;3615223;39;20050;-64
2021/05/17 08:43:50;;;;;;;2.83;1.50;;;;;;;14.10;62.31;97876.66;3613604;39;20420;-63
2021/05/17 08:46:17;;;;;;;3.10;2.42;;;;;;;13.99;61.38;97869.53;3611597;39;20050;-63
2021/05/17 08:48:49;;;;;;;5.35;1.55;;;;;;;14.13;61.26;97877.00;3611325;39;20047;-64
2021/05/17 08:51:22;;;;;;;3.70;1.40;;;;;;;14.13;60.29;97882.31;3610949;39;20129;-63
2021/05/17 08:53:50;;;;;;;4.93;1.20;;;;;;;14.30;60.03;97884.19;3610702;39;20062;-63
2021/05/17 08:56:18;;;;;;;1.35;0.93;;;;;;;14.49;59.91;97895.44;3611045;39;20036;-63
2021/05/17 08:58:46;;;;;;;3.83;1.50;;;;;;;14.81;59.39;97885.06;3611341;39;20412;-63
2021/05/17 09:01:14;;;;;;;1.65;1.40;;;;;;;15.03;57.94;97877.19;3611657;39;20027;-63
2021/05/17 09:03:53;;;;;;;6.15;0.90;;;;;;;15.16;57.79;97882.16;3611353;39;20051;-64
2021/05/17 09:06:23;;;;;;;2.42;1.23;;;;;;;15.45;57.95;97879.34;3611390;39;20043;-64
2021/05/17 09:08:50;;;;;;;3.78;1.13;;;;;;;15.66;56.46;97881.25;3610840;39;20389;-64
2021/05/17 09:11:30;;;;;;;3.28;1.20;;;;;;;15.90;55.93;97873.03;3611128;39;20043;-64
2021/05/17 09:14:08;;;;;;;7.15;1.10;;;;;;;16.02;54.57;97873.69;3611451;39;20143;-64
2021/05/17 09:16:55;;;;;;;2.67;1.30;;;;;;;16.05;53.25;97867.88;3611968;39;20047;-64
2021/05/17 09:19:24;;;;;;;3.60;1.52;;;;;;;15.96;53.98;97872.84;3602329;39;20062;-63
2021/05/17 09:21:58;;;;;;;2.50;1.00;;;;;;;15.43;54.28;97884.94;3610564;39;20052;-63
2021/05/17 09:24:36;;;;;;;3.55;0.98;;;;;;;15.00;55.47;97885.66;3610672;39;20052;-63
2021/05/17 09:27:05;;;;;;;4.03;1.38;;;;;;;14.94;56.34;97879.44;3610314;39;20176;-63
2021/05/17 09:29:38;;;;;;;2.00;1.10;;;;;;;15.10;57.12;97877.81;3610565;39;20096;-63
2021/05/17 09:32:16;;;;;;;4.32;1.73;;;;;;;15.58;56.80;97871.00;3611461;39;20406;-63
2021/05/17 09:34:46;;;;;;;3.20;1.20;;;;;;;15.67;54.61;97858.09;3602098;39;20051;-65
2021/05/17 09:37:14;;;;;;;2.10;1.00;;;;;;;15.73;55.08;97855.25;3603912;39;20024;-64
2021/05/17 09:39:50;;;;;;;8.55;1.80;;;;;;;15.96;54.06;97864.00;3613549;39;20043;-64
2021/05/17 09:42:21;;;;;;;4.95;1.40;;;;;;;15.87;54.06;97868.19;3610293;39;20047;-64
2021/05/17 09:44:50;;;;;;;5.75;1.40;;;;;;;15.93;53.89;97872.53;3610396;39;20046;-64
2021/05/17 09:47:20;;;;;;;3.15;1.15;;;;;;;15.85;53.79;97865.78;3609622;39;20128;-64
2021/05/17 09:49:50;;;;;;;3.53;1.20;;;;;;;15.59;53.86;97860.13;3600132;39;20048;-64
2021/05/17 09:52:23;;;;;;;3.92;1.13;;;;;;;15.43;52.71;97865.47;3609977;39;20043;-64
2021/05/17 09:54:52;;;;;;;1.98;0.80;;;;;;;15.11;52.82;97871.44;3600383;39;20078;-64
2021/05/17 09:57:21;;;;;;;3.63;0.88;;;;;;;14.82;53.92;97876.88;3609650;39;20048;-63
2021/05/17 09:59:51;;;;;;;4.35;1.10;;;;;;;14.79;54.37;97869.38;3610394;39;20419;-63
2021/05/17 10:02:35;;;;;;;5.78;1.35;;;;;;;15.28;54.69;97874.06;3610402;39;20074;-64
2021/05/17 10:05:11;;;;;;;2.90;1.40;;;;;;;15.80;53.74;97879.03;3609968;39;20059;-64
2021/05/17 10:07:40;;;;;;;5.53;1.23;;;;;;;15.77;52.83;97880.34;3609901;39;20039;-63
2021/05/17 10:10:09;;;;;;;3.05;1.17;;;;;;;15.68;52.64;97878.38;3610173;39;20058;-65
2021/05/17 10:12:36;;;;;;;2.72;1.27;;;;;;;15.51;53.54;97871.19;3609836;39;20078;-65
2021/05/17 10:15:06;;;;;;;2.33;0.90;;;;;;;15.32;53.19;97869.88;3609804;39;20067;-65
2021/05/17 10:17:34;;;;;;;4.40;1.10;;;;;;;15.02;53.46;97884.38;3599919;39;20044;-64
2021/05/17 10:20:02;;;;;;;4.80;1.33;;;;;;;14.79;56.22;97895.97;3609528;39;20051;-65
2021/05/17 10:22:30;;;;;;;2.83;0.95;;;;;;;14.34;59.02;97911.94;3609898;39;20043;-64
2021/05/17 10:24:59;;;;;;;5.15;1.48;;;;;;;13.91;62.07;97931.81;3602311;39;20335;-64
2021/05/17 10:27:29;;;;;;;2.65;1.23;;;;;;;13.67;63.44;97912.47;3609576;39;20400;-65
2021/05/17 10:30:01;;;;;;;3.38;1.10;;;;;;;13.85;65.00;97917.63;3609650;39;20283;-65
2021/05/17 10:32:54;;;;;;;5.47;1.40;;;;;;;13.88;64.15;97921.69;3609809;39;20035;-65
2021/05/17 10:35:23;;;;;;;8.55;1.63;;;;;;;13.78;63.45;97924.13;3598819;39;20051;-66
2021/05/17 10:37:51;;;;;;;4.35;1.42;;;;;;;13.86;63.27;97923.75;3609284;39;20054;-65
2021/05/17 10:40:32;;;;;;;2.95;1.17;;;;;;;14.03;63.16;97921.16;3609729;39;20040;-65
2021/05/17 10:43:10;;;;;;;3.35;1.27;;;;;;;13.98;62.98;97921.06;3609988;39;20051;-64
2021/05/17 10:48:26;;;;;;;3.20;1.23;;;;;;;14.32;63.92;97928.09;3609395;39;20043;-64
2021/05/17 10:51:10;;;;;;;4.85;1.02;;;;;;;14.53;62.38;97924.00;3609830;39;20042;-65
2021/05/17 10:53:42;;;;;;;;;;;;;;;14.68;62.84;97918.13;3610260;39;20023;-66
2021/05/17 10:56:11;;;;;;;5.60;1.10;;;;;;;14.74;61.75;97919.84;3610144;39;19931;-64
2021/05/17 11:01:59;;;;;;;1.55;1.02;;;;;;;14.89;62.07;97913.13;3567001;40;20061;-64
2021/05/17 11:04:29;;;;;;;3.25;1.02;;;;;;;15.27;61.76;97918.53;3597659;39;20365;-64
2021/05/17 11:07:18;;;;;;;1.17;0.73;;;;;;;15.39;60.67;97921.09;3609442;39;20043;-64
2021/05/17 11:09:54;;;;;;;1.85;1.00;;;;;;;15.44;59.37;97923.03;3609466;39;20412;-64
2021/05/17 11:12:55;;;;;;;2.30;1.15;;;;;;;15.60;58.94;97906.22;3609489;39;20054;-63
2021/05/17 11:16:00;;;;;;;1.92;1.00;;;;;;;15.91;57.86;97919.94;3609646;39;20385;-64
2021/05/17 11:18:51;;;;;;;1.95;0.70;;;;;;;15.98;56.83;97929.34;3599447;39;20062;-63
2021/05/17 11:21:27;;;;;;;1.25;0.80;;;;;;;15.78;56.41;97913.91;3607847;39;20052;-64
2021/05/17 11:24:01;;;;;;;2.17;0.80;;;;;;;15.84;56.42;97912.13;3599784;39;20043;-64
2021/05/17 11:26:31;;;;;;;0.98;0.60;;;;;;;15.84;53.64;97920.94;3610263;39;20051;-63
2021/05/17 11:29:06;;;;;;;0.88;0.50;;;;;;;15.78;54.16;97915.78;3609166;39;20385;-64
2021/05/17 11:31:44;;;;;;;2.25;0.75;;;;;;;15.99;54.11;97911.50;3599861;39;20059;-64
2021/05/17 11:34:18;;;;;;;1.42;0.95;;;;;;;16.16;53.69;97906.88;3599937;39;20152;-64
2021/05/17 11:36:47;;;;;;;0.70;0.68;;;;;;;16.09;52.09;97915.09;3608877;39;20055;-64
2021/05/17 11:39:17;;;;;;;0.60;0.60;;;;;;;16.10;51.35;97903.38;3608846;39;20105;-64
2021/05/17 11:41:49;;;;;;;1.10;0.55;;;;;;;16.29;51.19;97905.72;3600070;39;20040;-64
2021/05/17 11:44:22;;;;;;;1.08;0.70;;;;;;;16.41;50.63;97892.19;3609573;39;20316;-63
2021/05/17 11:46:54;;;;;;;1.85;0.85;;;;;;;16.59;50.37;97889.19;3609202;39;20054;-63
2021/05/17 11:49:22;;;;;;;1.25;0.57;;;;;;;16.65;49.47;97903.38;3609062;39;20052;-64
2021/05/17 11:51:52;;;;;;;2.90;0.93;;;;;;;16.59;49.84;97902.53;3608879;39;20109;-64
2021/05/17 11:54:21;;;;;;;2.85;0.98;;;;;;;16.69;49.57;97891.13;3599548;39;20059;-64
2021/05/17 11:56:50;;;;;;;1.83;1.40;;;;;;;16.78;49.29;97895.00;3608907;39;20054;-63
2021/05/17 11:59:19;;;;;;;1.00;0.80;;;;;;;16.80;49.35;97888.31;3609142;39;20039;-63
2021/05/17 12:01:48;;;;;;;2.58;1.00;;;;;;;16.45;50.02;97893.31;3609419;39;20047;-65
2021/05/17 12:04:19;;;;;;;3.22;1.00;;;;;;;16.30;50.32;97897.44;3599504;39;20055;-65
2021/05/17 12:06:49;;;;;;;1.77;0.70;;;;;;;16.24;50.38;97886.97;3608772;39;20084;-62